sensor_id;sensor_type;location;lat;lon;timestamp;temperature;humidity
41628;DHT22;27321;50.816;6.054;2023-02-20T00:01:07;8.20;75.30
41628;DHT22;27321;50.816;6.054;2023-02-20T00:04:14;8.20;74.60
41628;DHT22;27321;50.816;6.054;2023-02-20T00:07:16;8.10;75.40
41628;DHT22;27321;50.816;6.054;2023-02-20T00:10:19;8.10;75.20
41628;DHT22;27321;50.816;6.054;2023-02-20T00:13:20;8.10;75.40
41628;DHT22;27321;50.816;6.054;2023-02-20T00:16:21;8.10;75.30
41628;DHT22;27321;50.816;6.054;2023-02-20T00:19:23;8.00;75.30
41628;DHT22;27321;50.816;6.054;2023-02-20T00:22:27;8.00;75.20
41628;DHT22;27321;50.816;6.054;2023-02-20T00:25:31;8.00;75.60
41628;DHT22;27321;50.816;6.054;2023-02-20T00:28:33;8.00;75.60
41628;DHT22;27321;50.816;6.054;2023-02-20T00:31:34;8.00;75.90
41628;DHT22;27321;50.816;6.054;2023-02-20T00:34:37;8.10;75.50
41628;DHT22;27321;50.816;6.054;2023-02-20T00:37:40;8.00;75.70
41628;DHT22;27321;50.816;6.054;2023-02-20T00:40:43;8.00;75.50
41628;DHT22;27321;50.816;6.054;2023-02-20T00:43:48;8.00;76.10
41628;DHT22;27321;50.816;6.054;2023-02-20T00:46:50;8.00;76.10
41628;DHT22;27321;50.816;6.054;2023-02-20T00:49:51;8.00;76.10
41628;DHT22;27321;50.816;6.054;2023-02-20T00:52:56;8.00;76.40
41628;DHT22;27321;50.816;6.054;2023-02-20T00:55:58;8.00;76.30
41628;DHT22;27321;50.816;6.054;2023-02-20T00:58:59;8.00;76.50
41628;DHT22;27321;50.816;6.054;2023-02-20T01:02:00;7.90;76.20
41628;DHT22;27321;50.816;6.054;2023-02-20T01:05:01;7.90;76.90
41628;DHT22;27321;50.816;6.054;2023-02-20T01:08:03;7.90;76.40
41628;DHT22;27321;50.816;6.054;2023-02-20T01:11:04;7.90;76.60
41628;DHT22;27321;50.816;6.054;2023-02-20T01:14:05;7.90;76.70
41628;DHT22;27321;50.816;6.054;2023-02-20T01:17:07;7.80;77.30
41628;DHT22;27321;50.816;6.054;2023-02-20T01:20:09;7.80;76.70
41628;DHT22;27321;50.816;6.054;2023-02-20T01:23:10;7.80;77.20
41628;DHT22;27321;50.816;6.054;2023-02-20T01:26:12;7.80;77.60
41628;DHT22;27321;50.816;6.054;2023-02-20T01:29:14;7.80;77.40
41628;DHT22;27321;50.816;6.054;2023-02-20T01:32:16;7.80;77.50
41628;DHT22;27321;50.816;6.054;2023-02-20T01:35:17;7.80;77.20
41628;DHT22;27321;50.816;6.054;2023-02-20T01:38:18;7.80;77.50
41628;DHT22;27321;50.816;6.054;2023-02-20T01:41:21;7.80;77.30
41628;DHT22;27321;50.816;6.054;2023-02-20T01:44:27;7.80;77.30
41628;DHT22;27321;50.816;6.054;2023-02-20T01:47:30;7.70;77.80
41628;DHT22;27321;50.816;6.054;2023-02-20T01:50:43;7.70;77.60
41628;DHT22;27321;50.816;6.054;2023-02-20T01:53:44;7.70;77.90
41628;DHT22;27321;50.816;6.054;2023-02-20T01:56:46;7.70;77.70
41628;DHT22;27321;50.816;6.054;2023-02-20T01:59:49;7.70;77.80
41628;DHT22;27321;50.816;6.054;2023-02-20T02:03:07;7.60;77.60
41628;DHT22;27321;50.816;6.054;2023-02-20T02:06:11;7.60;77.50
41628;DHT22;27321;50.816;6.054;2023-02-20T02:12:41;7.60;77.70
41628;DHT22;27321;50.816;6.054;2023-02-20T02:15:45;7.60;77.70
41628;DHT22;27321;50.816;6.054;2023-02-20T02:22:18;7.70;77.70
41628;DHT22;27321;50.816;6.054;2023-02-20T02:26:19;7.60;77.70
41628;DHT22;27321;50.816;6.054;2023-02-20T02:29:29;7.60;77.70
41628;DHT22;27321;50.816;6.054;2023-02-20T02:39:24;7.60;77.60
41628;DHT22;27321;50.816;6.054;2023-02-20T02:42:59;7.60;77.80
41628;DHT22;27321;50.816;6.054;2023-02-20T02:46:14;7.60;77.40
41628;DHT22;27321;50.816;6.054;2023-02-20T02:52:44;7.60;77.30
41628;DHT22;27321;50.816;6.054;2023-02-20T02:55:48;7.60;77.20
41628;DHT22;27321;50.816;6.054;2023-02-20T02:58:53;7.50;77.80
41628;DHT22;27321;50.816;6.054;2023-02-20T03:01:59;7.50;77.70
41628;DHT22;27321;50.816;6.054;2023-02-20T03:05:05;7.50;77.50
41628;DHT22;27321;50.816;6.054;2023-02-20T03:08:54;7.50;77.50
41628;DHT22;27321;50.816;6.054;2023-02-20T03:11:41;7.60;77.60
41628;DHT22;27321;50.816;6.054;2023-02-20T03:14:58;7.50;77.30
41628;DHT22;27321;50.816;6.054;2023-02-20T03:18:24;7.50;77.90
41628;DHT22;27321;50.816;6.054;2023-02-20T03:21:31;7.50;77.70
41628;DHT22;27321;50.816;6.054;2023-02-20T03:24:38;7.50;78.00
41628;DHT22;27321;50.816;6.054;2023-02-20T03:28:13;7.50;77.90
41628;DHT22;27321;50.816;6.054;2023-02-20T03:31:21;7.50;77.60
41628;DHT22;27321;50.816;6.054;2023-02-20T03:34:41;7.40;77.90
41628;DHT22;27321;50.816;6.054;2023-02-20T03:38:03;7.50;77.80
41628;DHT22;27321;50.816;6.054;2023-02-20T03:41:26;7.50;77.80
41628;DHT22;27321;50.816;6.054;2023-02-20T03:44:48;7.40;77.70
41628;DHT22;27321;50.816;6.054;2023-02-20T03:47:51;7.50;77.90
41628;DHT22;27321;50.816;6.054;2023-02-20T03:50:56;7.40;77.60
41628;DHT22;27321;50.816;6.054;2023-02-20T03:54:31;7.40;77.70
41628;DHT22;27321;50.816;6.054;2023-02-20T03:57:39;7.40;77.80
41628;DHT22;27321;50.816;6.054;2023-02-20T04:00:46;7.30;78.10
41628;DHT22;27321;50.816;6.054;2023-02-20T04:03:49;7.30;78.10
41628;DHT22;27321;50.816;6.054;2023-02-20T04:06:52;7.30;78.10
41628;DHT22;27321;50.816;6.054;2023-02-20T04:09:59;7.30;78.30
41628;DHT22;27321;50.816;6.054;2023-02-20T04:13:00;7.30;78.20
41628;DHT22;27321;50.816;6.054;2023-02-20T04:16:04;7.30;78.30
41628;DHT22;27321;50.816;6.054;2023-02-20T04:19:06;7.30;78.00
41628;DHT22;27321;50.816;6.054;2023-02-20T04:22:11;7.20;78.10
41628;DHT22;27321;50.816;6.054;2023-02-20T04:25:57;7.20;77.90
41628;DHT22;27321;50.816;6.054;2023-02-20T04:29:11;7.20;78.30
41628;DHT22;27321;50.816;6.054;2023-02-20T04:32:12;7.10;78.00
41628;DHT22;27321;50.816;6.054;2023-02-20T04:35:19;7.10;78.40
41628;DHT22;27321;50.816;6.054;2023-02-20T04:38:22;7.10;78.40
41628;DHT22;27321;50.816;6.054;2023-02-20T04:41:25;7.10;78.30
41628;DHT22;27321;50.816;6.054;2023-02-20T04:44:27;7.00;78.80
41628;DHT22;27321;50.816;6.054;2023-02-20T04:47:31;7.10;78.60
41628;DHT22;27321;50.816;6.054;2023-02-20T04:50:34;7.10;78.80
41628;DHT22;27321;50.816;6.054;2023-02-20T04:53:37;7.10;78.50
41628;DHT22;27321;50.816;6.054;2023-02-20T04:56:38;7.10;78.50
41628;DHT22;27321;50.816;6.054;2023-02-20T04:59:41;7.10;78.30
41628;DHT22;27321;50.816;6.054;2023-02-20T05:02:43;7.00;78.80
41628;DHT22;27321;50.816;6.054;2023-02-20T05:05:44;7.00;78.90
41628;DHT22;27321;50.816;6.054;2023-02-20T05:08:45;7.00;79.00
41628;DHT22;27321;50.816;6.054;2023-02-20T05:11:46;7.00;79.30
41628;DHT22;27321;50.816;6.054;2023-02-20T05:14:48;7.00;79.30
41628;DHT22;27321;50.816;6.054;2023-02-20T05:17:49;7.00;79.10
41628;DHT22;27321;50.816;6.054;2023-02-20T05:20:50;7.00;79.40
41628;DHT22;27321;50.816;6.054;2023-02-20T05:24:21;7.00;79.30
41628;DHT22;27321;50.816;6.054;2023-02-20T05:27:23;6.90;79.40
41628;DHT22;27321;50.816;6.054;2023-02-20T05:30:24;7.00;79.80
41628;DHT22;27321;50.816;6.054;2023-02-20T05:33:25;7.00;79.50
41628;DHT22;27321;50.816;6.054;2023-02-20T05:36:26;7.00;79.10
41628;DHT22;27321;50.816;6.054;2023-02-20T05:39:27;7.00;79.00
41628;DHT22;27321;50.816;6.054;2023-02-20T05:42:28;7.00;78.60
41628;DHT22;27321;50.816;6.054;2023-02-20T05:45:29;7.00;78.90
41628;DHT22;27321;50.816;6.054;2023-02-20T05:48:30;7.00;78.60
41628;DHT22;27321;50.816;6.054;2023-02-20T05:51:31;7.00;78.80
41628;DHT22;27321;50.816;6.054;2023-02-20T05:54:32;6.90;78.60
41628;DHT22;27321;50.816;6.054;2023-02-20T05:57:33;6.90;79.10
41628;DHT22;27321;50.816;6.054;2023-02-20T06:00:34;6.90;78.70
41628;DHT22;27321;50.816;6.054;2023-02-20T06:03:35;6.80;78.90
41628;DHT22;27321;50.816;6.054;2023-02-20T06:06:38;6.80;79.00
41628;DHT22;27321;50.816;6.054;2023-02-20T06:09:42;6.80;79.30
41628;DHT22;27321;50.816;6.054;2023-02-20T06:12:43;6.80;79.00
41628;DHT22;27321;50.816;6.054;2023-02-20T06:15:44;6.80;78.90
41628;DHT22;27321;50.816;6.054;2023-02-20T06:18:45;6.70;79.00
41628;DHT22;27321;50.816;6.054;2023-02-20T06:21:47;6.70;78.90
41628;DHT22;27321;50.816;6.054;2023-02-20T06:24:49;6.70;78.60
41628;DHT22;27321;50.816;6.054;2023-02-20T06:27:50;6.60;78.90
41628;DHT22;27321;50.816;6.054;2023-02-20T06:30:51;6.70;78.80
41628;DHT22;27321;50.816;6.054;2023-02-20T06:33:52;6.70;78.60
41628;DHT22;27321;50.816;6.054;2023-02-20T06:36:54;6.60;78.70
41628;DHT22;27321;50.816;6.054;2023-02-20T06:39:54;6.60;78.90
41628;DHT22;27321;50.816;6.054;2023-02-20T06:42:55;6.60;79.00
41628;DHT22;27321;50.816;6.054;2023-02-20T06:45:56;6.50;79.30
41628;DHT22;27321;50.816;6.054;2023-02-20T06:48:58;6.50;79.30
41628;DHT22;27321;50.816;6.054;2023-02-20T06:51:59;6.60;79.20
41628;DHT22;27321;50.816;6.054;2023-02-20T06:55:00;6.60;79.30
41628;DHT22;27321;50.816;6.054;2023-02-20T06:58:01;6.60;79.40
41628;DHT22;27321;50.816;6.054;2023-02-20T07:01:02;6.60;79.30
41628;DHT22;27321;50.816;6.054;2023-02-20T07:04:03;6.60;79.20
41628;DHT22;27321;50.816;6.054;2023-02-20T07:07:04;6.60;79.10
41628;DHT22;27321;50.816;6.054;2023-02-20T07:10:05;6.60;79.40
41628;DHT22;27321;50.816;6.054;2023-02-20T07:13:06;6.60;79.50
41628;DHT22;27321;50.816;6.054;2023-02-20T07:16:07;6.70;79.50
41628;DHT22;27321;50.816;6.054;2023-02-20T07:19:08;6.70;79.40
41628;DHT22;27321;50.816;6.054;2023-02-20T07:22:09;6.70;79.10
41628;DHT22;27321;50.816;6.054;2023-02-20T07:25:10;6.70;79.40
41628;DHT22;27321;50.816;6.054;2023-02-20T07:28:11;6.70;79.60
41628;DHT22;27321;50.816;6.054;2023-02-20T07:31:12;6.80;79.30
41628;DHT22;27321;50.816;6.054;2023-02-20T07:34:13;6.90;79.10
41628;DHT22;27321;50.816;6.054;2023-02-20T07:37:15;6.90;79.20
41628;DHT22;27321;50.816;6.054;2023-02-20T07:40:16;6.90;79.30
41628;DHT22;27321;50.816;6.054;2023-02-20T07:43:18;6.90;79.30
41628;DHT22;27321;50.816;6.054;2023-02-20T07:46:18;7.00;79.30
41628;DHT22;27321;50.816;6.054;2023-02-20T07:49:19;7.10;78.80
41628;DHT22;27321;50.816;6.054;2023-02-20T07:52:20;7.10;78.60
41628;DHT22;27321;50.816;6.054;2023-02-20T07:55:21;7.10;78.40
41628;DHT22;27321;50.816;6.054;2023-02-20T07:58:22;7.10;78.60
41628;DHT22;27321;50.816;6.054;2023-02-20T08:01:24;7.10;78.70
41628;DHT22;27321;50.816;6.054;2023-02-20T08:04:28;7.10;78.50
41628;DHT22;27321;50.816;6.054;2023-02-20T08:07:30;7.10;78.80
41628;DHT22;27321;50.816;6.054;2023-02-20T08:10:31;7.10;78.80
41628;DHT22;27321;50.816;6.054;2023-02-20T08:13:34;7.10;79.00
41628;DHT22;27321;50.816;6.054;2023-02-20T08:16:35;7.20;78.90
41628;DHT22;27321;50.816;6.054;2023-02-20T08:19:37;7.20;78.40
41628;DHT22;27321;50.816;6.054;2023-02-20T08:22:37;7.20;78.70
41628;DHT22;27321;50.816;6.054;2023-02-20T08:25:41;7.30;78.60
41628;DHT22;27321;50.816;6.054;2023-02-20T08:28:43;7.30;78.60
41628;DHT22;27321;50.816;6.054;2023-02-20T08:31:44;7.30;78.50
41628;DHT22;27321;50.816;6.054;2023-02-20T08:34:45;7.30;78.40
41628;DHT22;27321;50.816;6.054;2023-02-20T08:37:46;7.30;78.40
41628;DHT22;27321;50.816;6.054;2023-02-20T08:40:47;7.30;78.90
41628;DHT22;27321;50.816;6.054;2023-02-20T08:43:49;7.40;78.30
41628;DHT22;27321;50.816;6.054;2023-02-20T08:46:50;7.40;78.80
41628;DHT22;27321;50.816;6.054;2023-02-20T08:49:51;7.50;78.30
41628;DHT22;27321;50.816;6.054;2023-02-20T08:52:55;7.50;78.10
41628;DHT22;27321;50.816;6.054;2023-02-20T08:55:56;7.60;78.00
41628;DHT22;27321;50.816;6.054;2023-02-20T08:59:00;7.60;77.20
41628;DHT22;27321;50.816;6.054;2023-02-20T09:02:01;7.60;76.90
41628;DHT22;27321;50.816;6.054;2023-02-20T09:05:02;7.60;76.80
41628;DHT22;27321;50.816;6.054;2023-02-20T09:08:05;7.60;76.90
41628;DHT22;27321;50.816;6.054;2023-02-20T09:11:06;7.70;77.00
41628;DHT22;27321;50.816;6.054;2023-02-20T09:14:08;7.80;76.90
41628;DHT22;27321;50.816;6.054;2023-02-20T09:17:09;7.70;76.70
41628;DHT22;27321;50.816;6.054;2023-02-20T09:20:11;7.70;76.40
41628;DHT22;27321;50.816;6.054;2023-02-20T09:23:12;7.70;76.80
41628;DHT22;27321;50.816;6.054;2023-02-20T09:26:14;7.70;76.70
41628;DHT22;27321;50.816;6.054;2023-02-20T09:29:14;7.60;76.50
41628;DHT22;27321;50.816;6.054;2023-02-20T09:32:16;7.60;76.80
41628;DHT22;27321;50.816;6.054;2023-02-20T09:35:28;7.80;76.70
41628;DHT22;27321;50.816;6.054;2023-02-20T09:38:29;7.80;76.20
41628;DHT22;27321;50.816;6.054;2023-02-20T09:48:29;7.90;75.90
41628;DHT22;27321;50.816;6.054;2023-02-20T09:51:40;8.00;75.60
41628;DHT22;27321;50.816;6.054;2023-02-20T09:54:51;8.10;75.70
41628;DHT22;27321;50.816;6.054;2023-02-20T09:57:55;8.10;75.70
41628;DHT22;27321;50.816;6.054;2023-02-20T10:00:59;8.20;75.60
41628;DHT22;27321;50.816;6.054;2023-02-20T10:04:06;8.30;75.40
41628;DHT22;27321;50.816;6.054;2023-02-20T10:07:46;8.40;76.00
41628;DHT22;27321;50.816;6.054;2023-02-20T10:10:58;8.40;75.20
41628;DHT22;27321;50.816;6.054;2023-02-20T10:25:18;8.70;74.50
41628;DHT22;27321;50.816;6.054;2023-02-20T10:28:26;8.70;74.20
41628;DHT22;27321;50.816;6.054;2023-02-20T10:34:50;8.60;74.10
41628;DHT22;27321;50.816;6.054;2023-02-20T10:38:00;8.60;74.50
41628;DHT22;27321;50.816;6.054;2023-02-20T10:41:26;8.70;74.80
41628;DHT22;27321;50.816;6.054;2023-02-20T10:44:35;8.80;74.60
41628;DHT22;27321;50.816;6.054;2023-02-20T10:47:47;8.80;74.10
41628;DHT22;27321;50.816;6.054;2023-02-20T10:51:11;8.90;74.30
41628;DHT22;27321;50.816;6.054;2023-02-20T10:54:30;8.90;74.20
41628;DHT22;27321;50.816;6.054;2023-02-20T10:57:54;8.90;74.20
41628;DHT22;27321;50.816;6.054;2023-02-20T11:01:06;8.90;74.20
41628;DHT22;27321;50.816;6.054;2023-02-20T11:04:33;9.00;74.10
41628;DHT22;27321;50.816;6.054;2023-02-20T11:07:36;9.00;73.80
41628;DHT22;27321;50.816;6.054;2023-02-20T11:10:37;9.00;73.60
41628;DHT22;27321;50.816;6.054;2023-02-20T11:13:38;9.10;73.90
41628;DHT22;27321;50.816;6.054;2023-02-20T11:16:44;9.10;73.40
41628;DHT22;27321;50.816;6.054;2023-02-20T11:19:50;9.20;73.00
41628;DHT22;27321;50.816;6.054;2023-02-20T11:22:53;9.20;72.90
41628;DHT22;27321;50.816;6.054;2023-02-20T11:29:23;9.30;73.30
41628;DHT22;27321;50.816;6.054;2023-02-20T11:32:42;9.30;73.60
41628;DHT22;27321;50.816;6.054;2023-02-20T11:35:45;9.50;73.70
41628;DHT22;27321;50.816;6.054;2023-02-20T11:38:48;9.60;73.10
41628;DHT22;27321;50.816;6.054;2023-02-20T11:42:32;9.60;72.60
41628;DHT22;27321;50.816;6.054;2023-02-20T11:45:34;9.60;73.10
41628;DHT22;27321;50.816;6.054;2023-02-20T11:48:35;9.70;72.80
41628;DHT22;27321;50.816;6.054;2023-02-20T11:51:41;9.80;73.20
41628;DHT22;27321;50.816;6.054;2023-02-20T11:54:47;9.70;72.80
41628;DHT22;27321;50.816;6.054;2023-02-20T11:58:25;9.70;72.60
41628;DHT22;27321;50.816;6.054;2023-02-20T12:01:33;9.70;72.60
41628;DHT22;27321;50.816;6.054;2023-02-20T12:04:37;9.70;72.70
41628;DHT22;27321;50.816;6.054;2023-02-20T12:07:41;9.70;72.30
41628;DHT22;27321;50.816;6.054;2023-02-20T12:10:57;9.70;72.70
41628;DHT22;27321;50.816;6.054;2023-02-20T12:14:00;9.70;72.70
41628;DHT22;27321;50.816;6.054;2023-02-20T12:20:22;9.80;72.60
41628;DHT22;27321;50.816;6.054;2023-02-20T12:24:19;9.80;73.10
41628;DHT22;27321;50.816;6.054;2023-02-20T12:46:15;10.00;73.30
41628;DHT22;27321;50.816;6.054;2023-02-20T12:50:01;10.10;73.00
41628;DHT22;27321;50.816;6.054;2023-02-20T12:53:44;10.10;72.80
41628;DHT22;27321;50.816;6.054;2023-02-20T12:57:13;10.00;73.30
41628;DHT22;27321;50.816;6.054;2023-02-20T13:00:30;10.10;73.80
41628;DHT22;27321;50.816;6.054;2023-02-20T13:07:14;10.10;73.30
41628;DHT22;27321;50.816;6.054;2023-02-20T13:13:28;10.20;73.90
41628;DHT22;27321;50.816;6.054;2023-02-20T13:29:56;10.30;73.80
41628;DHT22;27321;50.816;6.054;2023-02-20T13:33:22;10.20;74.40
41628;DHT22;27321;50.816;6.054;2023-02-20T13:39:35;10.20;74.60
41628;DHT22;27321;50.816;6.054;2023-02-20T13:42:38;10.20;74.30
41628;DHT22;27321;50.816;6.054;2023-02-20T13:45:46;10.20;74.20
41628;DHT22;27321;50.816;6.054;2023-02-20T13:48:50;10.30;74.60
41628;DHT22;27321;50.816;6.054;2023-02-20T13:51:53;10.20;74.00
41628;DHT22;27321;50.816;6.054;2023-02-20T13:55:03;10.20;74.60
41628;DHT22;27321;50.816;6.054;2023-02-20T13:58:15;10.30;74.70
41628;DHT22;27321;50.816;6.054;2023-02-20T14:01:16;10.30;74.50
41628;DHT22;27321;50.816;6.054;2023-02-20T14:04:20;10.30;75.00
41628;DHT22;27321;50.816;6.054;2023-02-20T14:07:42;10.40;74.70
41628;DHT22;27321;50.816;6.054;2023-02-20T14:10:44;10.40;74.60
41628;DHT22;27321;50.816;6.054;2023-02-20T14:13:49;10.50;74.50
41628;DHT22;27321;50.816;6.054;2023-02-20T14:16:52;10.50;74.00
41628;DHT22;27321;50.816;6.054;2023-02-20T14:20:04;10.50;73.50
41628;DHT22;27321;50.816;6.054;2023-02-20T14:23:18;10.50;73.90
41628;DHT22;27321;50.816;6.054;2023-02-20T14:26:23;10.60;73.60
41628;DHT22;27321;50.816;6.054;2023-02-20T14:32:30;10.70;73.50
41628;DHT22;27321;50.816;6.054;2023-02-20T14:42:49;10.60;73.90
41628;DHT22;27321;50.816;6.054;2023-02-20T14:46:02;10.50;73.90
41628;DHT22;27321;50.816;6.054;2023-02-20T14:49:21;10.50;74.20
41628;DHT22;27321;50.816;6.054;2023-02-20T14:52:27;10.50;74.00
41628;DHT22;27321;50.816;6.054;2023-02-20T14:55:29;10.60;73.90
41628;DHT22;27321;50.816;6.054;2023-02-20T14:58:34;10.50;73.90
41628;DHT22;27321;50.816;6.054;2023-02-20T15:01:39;10.50;73.70
41628;DHT22;27321;50.816;6.054;2023-02-20T15:07:48;10.30;74.60
41628;DHT22;27321;50.816;6.054;2023-02-20T15:10:54;10.30;74.20
41628;DHT22;27321;50.816;6.054;2023-02-20T15:13:55;10.30;74.70
41628;DHT22;27321;50.816;6.054;2023-02-20T15:17:24;10.20;74.60
41628;DHT22;27321;50.816;6.054;2023-02-20T15:20:36;10.20;74.90
41628;DHT22;27321;50.816;6.054;2023-02-20T15:23:40;10.20;74.90
41628;DHT22;27321;50.816;6.054;2023-02-20T15:26:43;10.30;74.40
41628;DHT22;27321;50.816;6.054;2023-02-20T15:29:45;10.30;75.10
41628;DHT22;27321;50.816;6.054;2023-02-20T15:32:51;10.20;74.90
41628;DHT22;27321;50.816;6.054;2023-02-20T15:35:53;10.30;74.50
41628;DHT22;27321;50.816;6.054;2023-02-20T15:38:55;10.30;74.00
41628;DHT22;27321;50.816;6.054;2023-02-20T15:41:56;10.30;74.20
41628;DHT22;27321;50.816;6.054;2023-02-20T15:44:57;10.20;74.40
41628;DHT22;27321;50.816;6.054;2023-02-20T15:47:58;10.20;74.20
41628;DHT22;27321;50.816;6.054;2023-02-20T15:50:59;10.20;74.10
41628;DHT22;27321;50.816;6.054;2023-02-20T15:54:00;10.10;74.40
41628;DHT22;27321;50.816;6.054;2023-02-20T15:57:01;10.10;74.60
41628;DHT22;27321;50.816;6.054;2023-02-20T16:00:20;10.10;74.20
41628;DHT22;27321;50.816;6.054;2023-02-20T16:03:28;10.00;74.70
41628;DHT22;27321;50.816;6.054;2023-02-20T16:06:30;10.00;74.80
41628;DHT22;27321;50.816;6.054;2023-02-20T16:09:32;10.00;75.10
41628;DHT22;27321;50.816;6.054;2023-02-20T16:12:33;9.90;75.30
41628;DHT22;27321;50.816;6.054;2023-02-20T16:15:34;9.80;75.40
41628;DHT22;27321;50.816;6.054;2023-02-20T16:18:41;9.80;75.40
41628;DHT22;27321;50.816;6.054;2023-02-20T16:21:43;9.80;75.50
41628;DHT22;27321;50.816;6.054;2023-02-20T16:24:45;9.70;75.50
41628;DHT22;27321;50.816;6.054;2023-02-20T16:27:47;9.60;75.50
41628;DHT22;27321;50.816;6.054;2023-02-20T16:30:52;9.60;75.30
41628;DHT22;27321;50.816;6.054;2023-02-20T16:33:54;9.60;75.50
41628;DHT22;27321;50.816;6.054;2023-02-20T16:36:55;9.60;75.40
41628;DHT22;27321;50.816;6.054;2023-02-20T16:39:56;9.50;75.90
41628;DHT22;27321;50.816;6.054;2023-02-20T16:42:57;9.50;76.10
41628;DHT22;27321;50.816;6.054;2023-02-20T16:45:59;9.50;75.80
41628;DHT22;27321;50.816;6.054;2023-02-20T16:49:03;9.40;76.10
41628;DHT22;27321;50.816;6.054;2023-02-20T16:52:56;9.40;76.20
41628;DHT22;27321;50.816;6.054;2023-02-20T16:55:39;9.30;76.50
41628;DHT22;27321;50.816;6.054;2023-02-20T16:58:44;9.30;76.70
41628;DHT22;27321;50.816;6.054;2023-02-20T17:01:52;9.30;76.50
41628;DHT22;27321;50.816;6.054;2023-02-20T17:04:53;9.30;76.50
41628;DHT22;27321;50.816;6.054;2023-02-20T17:08:02;9.30;76.70
41628;DHT22;27321;50.816;6.054;2023-02-20T17:11:04;9.30;76.90
41628;DHT22;27321;50.816;6.054;2023-02-20T17:14:05;9.20;77.20
41628;DHT22;27321;50.816;6.054;2023-02-20T17:17:06;9.30;77.10
41628;DHT22;27321;50.816;6.054;2023-02-20T17:20:17;9.30;76.40
41628;DHT22;27321;50.816;6.054;2023-02-20T17:23:23;9.30;76.90
41628;DHT22;27321;50.816;6.054;2023-02-20T17:26:24;9.30;76.60
41628;DHT22;27321;50.816;6.054;2023-02-20T17:29:26;9.20;76.80
41628;DHT22;27321;50.816;6.054;2023-02-20T17:32:28;9.20;77.00
41628;DHT22;27321;50.816;6.054;2023-02-20T17:35:29;9.20;77.00
41628;DHT22;27321;50.816;6.054;2023-02-20T17:38:30;9.10;77.00
41628;DHT22;27321;50.816;6.054;2023-02-20T17:41:31;9.10;77.10
41628;DHT22;27321;50.816;6.054;2023-02-20T17:44:32;9.10;77.20
41628;DHT22;27321;50.816;6.054;2023-02-20T17:47:33;9.10;77.00
41628;DHT22;27321;50.816;6.054;2023-02-20T17:50:37;9.10;77.30
41628;DHT22;27321;50.816;6.054;2023-02-20T17:53:43;9.20;77.30
41628;DHT22;27321;50.816;6.054;2023-02-20T17:56:45;9.20;77.10
41628;DHT22;27321;50.816;6.054;2023-02-20T17:59:48;9.30;76.90
41628;DHT22;27321;50.816;6.054;2023-02-20T18:02:50;9.30;77.00
41628;DHT22;27321;50.816;6.054;2023-02-20T18:05:51;9.30;76.80
41628;DHT22;27321;50.816;6.054;2023-02-20T18:08:55;9.20;77.00
41628;DHT22;27321;50.816;6.054;2023-02-20T18:11:56;9.20;77.00
41628;DHT22;27321;50.816;6.054;2023-02-20T18:14:58;9.20;77.40
41628;DHT22;27321;50.816;6.054;2023-02-20T18:18:01;9.10;77.70
41628;DHT22;27321;50.816;6.054;2023-02-20T18:21:03;9.10;77.70
41628;DHT22;27321;50.816;6.054;2023-02-20T18:24:04;9.10;77.80
41628;DHT22;27321;50.816;6.054;2023-02-20T18:27:06;9.10;77.80
41628;DHT22;27321;50.816;6.054;2023-02-20T18:30:08;9.00;78.20
41628;DHT22;27321;50.816;6.054;2023-02-20T18:33:10;9.00;78.40
41628;DHT22;27321;50.816;6.054;2023-02-20T18:36:11;9.10;78.20
41628;DHT22;27321;50.816;6.054;2023-02-20T18:39:12;9.10;78.10
41628;DHT22;27321;50.816;6.054;2023-02-20T18:42:15;9.10;77.80
41628;DHT22;27321;50.816;6.054;2023-02-20T18:45:16;9.10;77.90
41628;DHT22;27321;50.816;6.054;2023-02-20T18:48:17;9.10;78.10
41628;DHT22;27321;50.816;6.054;2023-02-20T18:51:28;9.10;78.20
41628;DHT22;27321;50.816;6.054;2023-02-20T18:54:30;9.10;77.80
41628;DHT22;27321;50.816;6.054;2023-02-20T18:57:34;9.10;77.90
41628;DHT22;27321;50.816;6.054;2023-02-20T19:00:35;9.00;78.10
41628;DHT22;27321;50.816;6.054;2023-02-20T19:03:38;9.00;78.30
41628;DHT22;27321;50.816;6.054;2023-02-20T19:06:40;9.00;78.40
41628;DHT22;27321;50.816;6.054;2023-02-20T19:09:43;9.00;78.20
41628;DHT22;27321;50.816;6.054;2023-02-20T19:12:44;9.00;78.30
41628;DHT22;27321;50.816;6.054;2023-02-20T19:15:46;9.00;78.40
41628;DHT22;27321;50.816;6.054;2023-02-20T19:18:47;9.10;78.20
41628;DHT22;27321;50.816;6.054;2023-02-20T19:21:48;9.10;78.70
41628;DHT22;27321;50.816;6.054;2023-02-20T19:24:50;9.10;78.30
41628;DHT22;27321;50.816;6.054;2023-02-20T19:27:51;9.10;77.70
41628;DHT22;27321;50.816;6.054;2023-02-20T19:30:52;9.10;78.40
41628;DHT22;27321;50.816;6.054;2023-02-20T19:33:56;9.20;78.10
41628;DHT22;27321;50.816;6.054;2023-02-20T19:36:58;9.20;78.30
41628;DHT22;27321;50.816;6.054;2023-02-20T19:39:59;9.30;78.00
41628;DHT22;27321;50.816;6.054;2023-02-20T19:43:01;9.30;77.80
41628;DHT22;27321;50.816;6.054;2023-02-20T19:46:02;9.30;77.90
41628;DHT22;27321;50.816;6.054;2023-02-20T19:49:04;9.30;78.00
41628;DHT22;27321;50.816;6.054;2023-02-20T19:52:11;9.20;78.20
41628;DHT22;27321;50.816;6.054;2023-02-20T19:55:16;9.20;78.30
41628;DHT22;27321;50.816;6.054;2023-02-20T19:58:18;9.20;78.40
41628;DHT22;27321;50.816;6.054;2023-02-20T20:01:20;9.20;78.30
41628;DHT22;27321;50.816;6.054;2023-02-20T20:04:23;9.20;78.10
41628;DHT22;27321;50.816;6.054;2023-02-20T20:07:25;9.20;78.30
41628;DHT22;27321;50.816;6.054;2023-02-20T20:10:28;9.20;78.10
41628;DHT22;27321;50.816;6.054;2023-02-20T20:13:34;9.30;78.30
41628;DHT22;27321;50.816;6.054;2023-02-20T20:16:36;9.30;77.90
41628;DHT22;27321;50.816;6.054;2023-02-20T20:19:42;9.30;78.20
41628;DHT22;27321;50.816;6.054;2023-02-20T20:22:44;9.30;78.10
41628;DHT22;27321;50.816;6.054;2023-02-20T20:25:46;9.40;78.20
41628;DHT22;27321;50.816;6.054;2023-02-20T20:28:47;9.40;77.70
41628;DHT22;27321;50.816;6.054;2023-02-20T20:31:48;9.30;77.80
41628;DHT22;27321;50.816;6.054;2023-02-20T20:34:50;9.40;77.70
41628;DHT22;27321;50.816;6.054;2023-02-20T20:37:52;9.30;77.80
41628;DHT22;27321;50.816;6.054;2023-02-20T20:40:54;9.30;78.20
41628;DHT22;27321;50.816;6.054;2023-02-20T20:43:55;9.20;77.90
41628;DHT22;27321;50.816;6.054;2023-02-20T20:47:03;9.20;78.70
41628;DHT22;27321;50.816;6.054;2023-02-20T20:50:06;9.20;78.80
41628;DHT22;27321;50.816;6.054;2023-02-20T20:53:07;9.10;78.70
41628;DHT22;27321;50.816;6.054;2023-02-20T20:56:10;9.10;79.10
41628;DHT22;27321;50.816;6.054;2023-02-20T20:59:12;9.20;79.00
41628;DHT22;27321;50.816;6.054;2023-02-20T21:02:18;9.30;78.80
41628;DHT22;27321;50.816;6.054;2023-02-20T21:05:21;9.20;78.50
41628;DHT22;27321;50.816;6.054;2023-02-20T21:08:24;9.20;78.80
41628;DHT22;27321;50.816;6.054;2023-02-20T21:11:25;9.30;78.90
41628;DHT22;27321;50.816;6.054;2023-02-20T21:14:26;9.30;78.50
41628;DHT22;27321;50.816;6.054;2023-02-20T21:17:27;9.30;78.30
41628;DHT22;27321;50.816;6.054;2023-02-20T21:20:30;9.20;79.00
41628;DHT22;27321;50.816;6.054;2023-02-20T21:23:32;9.20;78.90
41628;DHT22;27321;50.816;6.054;2023-02-20T21:26:34;9.20;79.20
41628;DHT22;27321;50.816;6.054;2023-02-20T21:29:37;9.20;79.20